Time;durP1;ratioP1;P1;durP2;ratioP2;P2;SDS_P1;SDS_P2;PMS_P1;PMS_P2;Temp;Humidity;BMP_temperature;BMP_pressure;BME280_temperature;BME280_humidity;BME280_pressure;Samples;Min_cycle;Max_cycle;Signal;HPM_P1;HPM_P2
2021/07/26 00:01:14;;;;;;;23.90;16.60;;;;;;;20.99;95.94;100512.09;4998937;28;20489;-53
2021/07/26 00:03:43;;;;;;;78.93;52.00;;;;;;;20.96;97.08;100506.91;4994255;28;20978;-50
2021/07/26 00:06:10;;;;;;;60.40;39.27;;;;;;;21.10;96.52;100506.78;4998200;28;20980;-52
2021/07/26 00:08:38;;;;;;;56.13;37.23;;;;;;;20.89;97.22;100511.28;4994138;28;20827;-52
2021/07/26 00:11:07;;;;;;;48.00;32.87;;;;;;;21.03;97.62;100513.84;4998448;28;20478;-50
2021/07/26 00:13:35;;;;;;;50.37;36.00;;;;;;;21.13;96.45;100505.03;4994870;28;20496;-53
2021/07/26 00:16:05;;;;;;;39.23;25.07;;;;;;;21.04;96.05;100505.94;4998315;28;20462;-52
2021/07/26 00:18:33;;;;;;;33.37;24.80;;;;;;;20.85;97.48;100505.19;4995434;28;20478;-48
2021/07/26 00:21:01;;;;;;;25.27;18.50;;;;;;;20.62;98.92;100508.72;4998321;28;20577;-52
2021/07/26 00:23:30;;;;;;;34.67;21.70;;;;;;;20.48;99.89;100513.16;4991980;28;20492;-52
2021/07/26 00:25:57;;;;;;;32.00;23.07;;;;;;;20.53;99.80;100508.78;5005289;28;20507;-47
2021/07/26 00:28:25;;;;;;;23.40;18.13;;;;;;;20.70;99.13;100510.44;4993949;28;20511;-49
2021/07/26 00:30:52;;;;;;;26.80;19.57;;;;;;;20.53;99.15;100516.66;4997962;28;20794;-54
2021/07/26 00:34:26;;;;;;;31.80;18.73;;;;;;;20.56;99.44;100519.25;4995147;28;20565;-51
2021/07/26 00:36:56;;;;;;;26.60;19.53;;;;;;;20.59;99.27;100521.88;4919342;29;20908;-48
2021/07/26 00:39:25;;;;;;;23.47;17.67;;;;;;;20.41;100.00;100524.53;4894899;29;20598;-51
2021/07/26 00:41:54;;;;;;;26.07;18.33;;;;;;;20.23;100.00;100526.31;4960489;28;20478;-50
2021/07/26 00:44:23;;;;;;;28.20;19.03;;;;;;;20.35;100.00;100520.16;4995519;28;20511;-52
2021/07/26 00:46:52;;;;;;;28.90;19.13;;;;;;;20.41;100.00;100524.53;5000495;28;20465;-53
2021/07/26 00:49:21;;;;;;;26.00;19.73;;;;;;;20.32;100.00;100525.44;4984663;28;20482;-50
2021/07/26 00:51:50;;;;;;;23.87;18.57;;;;;;;20.37;100.00;100524.53;4997969;28;20494;-53
2021/07/26 00:54:22;;;;;;;27.53;20.60;;;;;;;20.59;100.00;100523.59;4993791;28;20489;-53
2021/07/26 00:56:51;;;;;;;27.07;21.10;;;;;;;20.58;99.01;100512.25;4998001;28;20920;-50
2021/07/26 00:59:18;;;;;;;28.07;20.20;;;;;;;20.37;100.00;100518.44;4992949;28;20480;-51
2021/07/26 01:01:46;;;;;;;28.90;21.00;;;;;;;20.30;100.00;100520.19;4997737;28;20773;-54
2021/07/26 01:04:14;;;;;;;34.20;21.50;;;;;;;20.28;100.00;100521.94;4993393;28;20495;-53
2021/07/26 01:06:42;;;;;;;29.10;22.00;;;;;;;20.24;100.00;100528.94;4997355;28;20465;-51
2021/07/26 01:09:10;;;;;;;30.47;21.97;;;;;;;20.17;100.00;100526.34;4992797;28;20486;-51
2021/07/26 01:11:39;;;;;;;31.67;23.13;;;;;;;20.19;100.00;100524.56;4997785;28;20482;-50
2021/07/26 01:14:07;;;;;;;29.13;23.00;;;;;;;20.09;100.00;100529.84;4991896;28;20486;-51
2021/07/26 01:16:35;;;;;;;30.57;22.03;;;;;;;20.04;100.00;100526.34;4997075;28;20834;-52
2021/07/26 01:19:03;;;;;;;35.00;23.43;;;;;;;20.26;100.00;100525.44;4994073;28;20493;-53
2021/07/26 01:21:32;;;;;;;32.40;23.53;;;;;;;20.42;100.00;100528.91;4997242;28;20480;-55
2021/07/26 01:24:02;;;;;;;33.97;23.77;;;;;;;20.47;100.00;100524.53;4994521;28;20488;-53
2021/07/26 01:26:30;;;;;;;30.90;23.00;;;;;;;20.49;100.00;100528.00;4997547;28;20461;-50
2021/07/26 01:28:59;;;;;;;29.30;23.30;;;;;;;20.56;100.00;100529.72;4992634;28;20923;-52
2021/07/26 01:31:27;;;;;;;35.10;23.30;;;;;;;20.60;100.00;100525.34;4994905;28;20937;-52
2021/07/26 01:33:55;;;;;;;35.17;22.43;;;;;;;20.50;100.00;100529.75;4998839;28;20790;-52
2021/07/26 01:36:23;;;;;;;31.70;23.90;;;;;;;20.55;100.00;100527.13;5016434;28;20461;-48
2021/07/26 01:38:53;;;;;;;30.90;23.73;;;;;;;20.55;100.00;100529.75;5014312;28;20488;-53
2021/07/26 01:41:22;;;;;;;31.50;22.77;;;;;;;20.53;100.00;100529.75;5016730;28;20805;-50
2021/07/26 01:44:03;;;;;;;31.90;24.00;;;;;;;20.48;100.00;100536.75;5013548;28;20514;-53
2021/07/26 01:47:02;;;;;;;33.47;22.70;;;;;;;20.46;100.00;100541.13;5016507;28;20934;-51
2021/07/26 01:49:36;;;;;;;35.97;22.70;;;;;;;20.28;100.00;100540.28;5001364;28;20486;-48
2021/07/26 01:52:05;;;;;;;37.77;23.10;;;;;;;20.23;100.00;100536.81;5016431;28;20487;-51
2021/07/26 01:54:34;;;;;;;30.83;21.60;;;;;;;20.35;100.00;100541.13;5011302;28;20496;-49
2021/07/26 01:57:01;;;;;;;31.53;23.93;;;;;;;20.10;100.00;100535.97;5016080;28;20548;-53
2021/07/26 01:59:29;;;;;;;31.03;22.33;;;;;;;20.16;100.00;100541.19;5012542;28;20497;-52
2021/07/26 02:01:57;;;;;;;31.43;22.53;;;;;;;20.27;100.00;100541.16;5015700;28;20934;-51
2021/07/26 02:04:24;;;;;;;29.93;23.13;;;;;;;20.15;100.00;100542.03;5018989;28;20482;-51
2021/07/26 02:06:52;;;;;;;33.40;23.53;;;;;;;20.10;100.00;100549.91;5016456;28;20554;-49
2021/07/26 02:09:20;;;;;;;34.73;22.13;;;;;;;19.88;100.00;100541.16;5012859;28;20485;-55
2021/07/26 02:11:48;;;;;;;33.57;23.70;;;;;;;20.09;100.00;100545.56;5016293;28;20790;-52
2021/07/26 02:14:16;;;;;;;30.20;23.30;;;;;;;20.01;100.00;100542.06;5013022;28;20482;-50
2021/07/26 02:16:44;;;;;;;28.20;21.77;;;;;;;20.11;100.00;100540.31;5015511;28;20551;-52
2021/07/26 02:19:11;;;;;;;30.67;22.43;;;;;;;20.06;100.00;100535.06;4993355;28;20479;-51
2021/07/26 02:21:39;;;;;;;32.17;22.83;;;;;;;20.10;100.00;100536.81;5016286;28;20485;-50
2021/07/26 02:24:07;;;;;;;30.90;22.90;;;;;;;19.95;100.00;100542.03;5012531;28;20782;-53
2021/07/26 02:26:35;;;;;;;27.53;22.00;;;;;;;20.18;100.00;100536.81;5015777;28;20468;-53
2021/07/26 02:29:05;;;;;;;32.20;23.47;;;;;;;20.02;100.00;100535.97;5012922;28;20487;-49
2021/07/26 02:31:32;;;;;;;32.27;24.07;;;;;;;20.04;100.00;100547.28;5015821;28;20476;-49
2021/07/26 02:34:00;;;;;;;29.50;21.60;;;;;;;20.02;100.00;100546.44;5011972;28;20489;-51
2021/07/26 02:36:27;;;;;;;30.60;22.83;;;;;;;20.09;100.00;100548.16;5015222;28;20562;-52
2021/07/26 02:38:55;;;;;;;31.10;23.50;;;;;;;20.12;100.00;100533.31;5012606;28;20492;-54
2021/07/26 02:41:22;;;;;;;30.60;23.13;;;;;;;20.06;100.00;100529.81;5012660;28;20479;-51
2021/07/26 02:43:50;;;;;;;28.23;22.70;;;;;;;20.15;100.00;100531.56;5011886;28;20493;-48
2021/07/26 02:46:19;;;;;;;33.83;24.40;;;;;;;20.08;100.00;100540.31;5020525;28;20476;-53
2021/07/26 02:48:46;;;;;;;29.30;22.73;;;;;;;20.03;100.00;100548.19;5012488;28;20484;-53
2021/07/26 02:51:14;;;;;;;35.20;24.17;;;;;;;20.15;100.00;100542.03;5015521;28;20495;-55
2021/07/26 02:53:42;;;;;;;34.70;24.73;;;;;;;20.05;100.00;100548.19;5013767;28;20487;-52
2021/07/26 02:56:10;;;;;;;34.83;24.10;;;;;;;19.68;100.00;100542.03;5015044;28;20460;-51
2021/07/26 02:58:38;;;;;;;35.13;24.93;;;;;;;19.49;100.00;100548.97;5013844;28;20496;-48
2021/07/26 03:01:09;;;;;;;34.60;23.43;;;;;;;19.50;100.00;100550.75;5022196;28;20929;-51
2021/07/26 03:03:38;;;;;;;30.67;22.97;;;;;;;19.51;100.00;100542.03;5012108;28;20790;-48
2021/07/26 03:06:13;;;;;;;36.13;24.03;;;;;;;19.50;100.00;100536.78;5015368;28;20459;-51
2021/07/26 03:08:41;;;;;;;33.53;24.30;;;;;;;19.67;100.00;100545.53;5013602;28;20500;-53
2021/07/26 03:11:10;;;;;;;36.03;26.30;;;;;;;19.78;100.00;100534.19;5015346;28;20505;-51
2021/07/26 03:13:38;;;;;;;30.60;23.07;;;;;;;19.78;100.00;100539.41;5009902;28;20499;-51
2021/07/26 03:16:06;;;;;;;33.03;24.20;;;;;;;19.76;100.00;100544.66;5015317;28;20471;-50
2021/07/26 03:18:34;;;;;;;32.27;23.43;;;;;;;19.87;100.00;100549.00;5010673;28;20490;-55
2021/07/26 03:21:04;;;;;;;29.47;23.70;;;;;;;19.88;100.00;100545.53;5015591;28;20472;-50
2021/07/26 03:23:31;;;;;;;29.97;23.43;;;;;;;19.81;100.00;100552.50;5012511;28;20472;-49
2021/07/26 03:25:59;;;;;;;30.83;24.10;;;;;;;19.53;100.00;100561.22;5015559;28;20460;-50
2021/07/26 03:28:27;;;;;;;34.10;24.20;;;;;;;19.36;100.00;100562.91;5005747;28;20480;-52
2021/07/26 03:30:54;;;;;;;34.30;24.03;;;;;;;19.38;100.00;100561.19;5019207;28;20483;-48
2021/07/26 03:33:22;;;;;;;34.13;24.43;;;;;;;19.47;100.00;100555.97;5013099;28;20510;-50
2021/07/26 03:35:49;;;;;;;30.20;23.13;;;;;;;19.37;100.00;100568.16;5019041;28;20466;-47
2021/07/26 03:38:20;;;;;;;33.47;24.43;;;;;;;19.41;100.00;100566.41;5015750;28;20480;-51
2021/07/26 03:40:48;;;;;;;35.40;26.17;;;;;;;19.69;100.00;100553.41;5019339;28;20483;-50
2021/07/26 03:43:16;;;;;;;39.23;25.00;;;;;;;19.88;100.00;100554.25;5010151;28;20480;-54
2021/07/26 03:45:44;;;;;;;34.03;23.93;;;;;;;20.01;100.00;100549.94;5018820;28;20471;-48
2021/07/26 03:48:12;;;;;;;32.63;24.47;;;;;;;19.94;100.00;100556.03;5015277;28;20484;-52
2021/07/26 03:50:40;;;;;;;34.00;25.13;;;;;;;19.78;100.00;100553.38;5018546;28;20507;-52
2021/07/26 03:53:08;;;;;;;32.43;24.70;;;;;;;19.70;100.00;100555.13;5015467;28;20948;-50
2021/07/26 03:55:38;;;;;;;35.10;25.23;;;;;;;19.89;100.00;100553.38;5018833;28;20463;-50
2021/07/26 03:58:05;;;;;;;91.97;58.03;;;;;;;19.96;100.00;100559.53;5015533;28;20793;-49
2021/07/26 04:00:33;;;;;;;55.67;37.47;;;;;;;20.17;100.00;100556.03;5018144;28;20488;-49
2021/07/26 04:03:08;;;;;;;56.40;38.20;;;;;;;20.17;100.00;100549.91;5015319;28;20563;-50
2021/07/26 04:05:38;;;;;;;32.97;25.93;;;;;;;20.32;100.00;100546.38;5018409;28;20459;-54
2021/07/26 04:08:08;;;;;;;39.07;26.53;;;;;;;20.49;100.00;100547.22;5014784;28;20491;-50
2021/07/26 04:10:39;;;;;;;38.90;29.70;;;;;;;20.44;100.00;100554.22;5018219;28;20484;-51
2021/07/26 04:13:07;;;;;;;40.50;27.10;;;;;;;20.37;100.00;100549.88;5013787;28;20984;-52
2021/07/26 04:15:35;;;;;;;34.33;25.47;;;;;;;20.56;100.00;100550.69;5018009;28;20495;-50
2021/07/26 04:18:02;;;;;;;36.47;25.40;;;;;;;20.56;100.00;100553.31;5014854;28;20480;-49
2021/07/26 04:20:30;;;;;;;30.90;23.33;;;;;;;20.55;100.00;100554.19;5018276;28;20969;-53
2021/07/26 04:22:57;;;;;;;29.63;22.17;;;;;;;20.55;100.00;100551.56;5009884;28;20457;-51
2021/07/26 04:25:25;;;;;;;31.80;23.07;;;;;;;20.64;100.00;100559.41;5018007;28;20467;-51
2021/07/26 04:27:54;;;;;;;36.17;25.77;;;;;;;20.60;100.00;100557.66;5013673;28;20469;-49
2021/07/26 04:30:22;;;;;;;28.60;22.77;;;;;;;20.52;100.00;100567.31;5017724;28;20484;-50
2021/07/26 04:32:49;;;;;;;34.97;24.30;;;;;;;20.75;100.00;100569.84;5015816;28;20773;-50
2021/07/26 04:35:17;;;;;;;40.43;29.90;;;;;;;20.85;100.00;100547.13;5017895;28;20501;-49
2021/07/26 04:37:45;;;;;;;38.43;27.17;;;;;;;21.18;100.00;100554.84;4994028;28;20468;-50
2021/07/26 04:40:13;;;;;;;30.60;23.37;;;;;;;21.09;99.66;100540.03;5017861;28;20940;-53
2021/07/26 04:42:42;;;;;;;36.00;22.27;;;;;;;21.24;98.58;100538.19;5014570;28;20552;-52
2021/07/26 04:45:12;;;;;;;30.60;22.80;;;;;;;21.26;98.81;100542.56;5017001;28;20494;-54
2021/07/26 04:47:42;;;;;;;29.03;23.40;;;;;;;21.20;99.85;100544.31;4992189;28;20476;-52
2021/07/26 04:50:11;;;;;;;30.80;22.80;;;;;;;21.45;99.11;100548.53;5012813;28;20524;-52
2021/07/26 04:52:40;;;;;;;29.70;22.07;;;;;;;21.55;97.47;100536.25;4997209;28;20472;-54
2021/07/26 04:55:08;;;;;;;30.47;23.20;;;;;;;21.62;97.49;100542.31;4997190;28;20482;-54
2021/07/26 04:57:36;;;;;;;33.20;24.23;;;;;;;21.57;98.46;100541.47;4998137;28;20462;-52
2021/07/26 05:00:04;;;;;;;33.17;23.57;;;;;;;21.61;98.62;100542.31;4991181;28;20796;-51
2021/07/26 05:02:33;;;;;;;30.10;21.93;;;;;;;21.73;97.90;100538.78;4997818;28;20764;-53
2021/07/26 05:05:01;;;;;;;40.83;24.13;;;;;;;21.70;97.57;100540.50;4993763;28;20489;-55
2021/07/26 05:07:29;;;;;;;30.90;22.20;;;;;;;21.58;99.00;100538.84;4997672;28;20462;-50
2021/07/26 05:09:56;;;;;;;33.00;22.57;;;;;;;21.55;99.10;100540.63;4998641;28;20489;-52
2021/07/26 05:12:24;;;;;;;34.30;22.77;;;;;;;21.67;99.32;100537.91;4997583;28;20553;-52
2021/07/26 05:14:53;;;;;;;27.73;21.90;;;;;;;21.58;99.92;100540.56;4998505;28;20905;-52
2021/07/26 05:17:24;;;;;;;34.53;23.97;;;;;;;21.65;100.00;100539.69;4997561;28;20458;-48
2021/07/26 05:19:53;;;;;;;28.87;22.20;;;;;;;21.74;100.00;100538.72;4982000;28;20486;-50
2021/07/26 05:22:20;;;;;;;37.20;25.47;;;;;;;21.93;100.00;100544.72;4997180;28;20473;-50
2021/07/26 05:24:50;;;;;;;36.67;25.40;;;;;;;22.06;99.40;100539.34;4988567;28;20486;-51
2021/07/26 05:27:18;;;;;;;28.37;22.83;;;;;;;21.94;98.67;100533.31;4997264;28;20458;-52
2021/07/26 05:29:46;;;;;;;31.33;23.03;;;;;;;21.91;98.96;100543.88;4995974;28;20485;-50
2021/07/26 05:32:13;;;;;;;31.03;24.00;;;;;;;22.10;98.37;100539.28;4997425;28;20469;-55
2021/07/26 05:34:42;;;;;;;31.07;22.97;;;;;;;22.20;98.30;100542.69;4993056;28;20486;-49
2021/07/26 05:37:11;;;;;;;31.20;23.67;;;;;;;22.62;97.39;100547.53;4996999;28;20775;-50
2021/07/26 05:39:38;;;;;;;30.80;24.30;;;;;;;22.68;95.51;100543.97;4984334;28;20485;-51
2021/07/26 05:42:08;;;;;;;38.07;25.63;;;;;;;22.73;95.24;100538.66;4998091;28;20501;-53
2021/07/26 05:44:38;;;;;;;62.50;47.20;;;;;;;22.92;93.74;100541.94;4993630;28;20478;-52
2021/07/26 05:47:06;;;;;;;37.03;23.17;;;;;;;22.68;95.72;100550.97;4996487;28;20783;-53
2021/07/26 05:49:33;;;;;;;145.37;95.17;;;;;;;22.85;96.56;100558.66;4992409;28;20933;-47
2021/07/26 05:52:01;;;;;;;55.90;37.50;;;;;;;22.80;96.08;100548.22;4997223;28;20514;-49
2021/07/26 05:54:30;;;;;;;42.93;28.20;;;;;;;22.84;96.64;100549.03;4972442;28;20506;-50
2021/07/26 05:57:00;;;;;;;56.03;39.73;;;;;;;22.93;96.48;100554.19;4996688;28;20458;-49
2021/07/26 05:59:29;;;;;;;67.27;47.40;;;;;;;23.09;95.41;100553.97;4991720;28;20793;-50
2021/07/26 06:01:57;;;;;;;45.03;33.03;;;;;;;23.12;95.01;100553.94;4997025;28;20780;-51
2021/07/26 06:04:25;;;;;;;43.80;32.90;;;;;;;23.04;95.06;100560.19;4997122;28;20489;-53
2021/07/26 06:06:54;;;;;;;45.60;35.50;;;;;;;23.03;95.60;100558.44;4999312;28;20458;-49
2021/07/26 06:09:22;;;;;;;40.03;27.13;;;;;;;23.04;95.07;100552.31;4992950;28;20481;-49
2021/07/26 06:11:53;;;;;;;32.40;21.80;;;;;;;23.00;96.00;100565.50;4996680;28;20485;-50
2021/07/26 06:14:21;;;;;;;29.80;22.77;;;;;;;23.05;95.59;100563.66;4989312;28;20490;-51
2021/07/26 06:16:50;;;;;;;31.80;22.87;;;;;;;23.16;95.79;100553.00;4996395;28;20516;-50
2021/07/26 06:19:18;;;;;;;67.13;48.70;;;;;;;23.37;94.88;100553.63;4992970;28;20795;-48
2021/07/26 06:21:48;;;;;;;29.20;23.43;;;;;;;23.20;94.64;100546.81;4996207;28;20478;-50
2021/07/26 06:24:17;;;;;;;39.80;28.97;;;;;;;23.31;95.23;100555.47;4980138;28;20480;-48
2021/07/26 06:26:46;;;;;;;54.40;35.83;;;;;;;23.22;95.21;100549.44;5001163;28;20468;-49
2021/07/26 06:29:14;;;;;;;30.40;22.10;;;;;;;23.04;94.87;100547.03;4972559;28;20494;-53
2021/07/26 06:31:43;;;;;;;33.33;24.30;;;;;;;23.18;95.20;100552.09;4995792;28;20483;-51
2021/07/26 06:34:11;;;;;;;32.53;25.00;;;;;;;23.38;94.22;100543.06;4992401;28;20790;-49
2021/07/26 06:36:39;;;;;;;28.83;20.67;;;;;;;23.27;93.98;100542.34;4996148;28;20486;-51
2021/07/26 06:39:07;;;;;;;26.80;21.30;;;;;;;23.40;92.62;100540.41;4992198;28;20568;-48
2021/07/26 06:41:35;;;;;;;37.20;22.60;;;;;;;23.53;92.50;100534.06;4996068;28;20760;-49
2021/07/26 06:44:03;;;;;;;30.40;20.37;;;;;;;23.67;92.41;100540.88;4992218;28;20768;-50
2021/07/26 06:46:32;;;;;;;29.87;20.73;;;;;;;23.56;90.58;100534.03;4996081;28;20458;-52
2021/07/26 06:48:59;;;;;;;31.70;21.13;;;;;;;23.76;90.34;100537.22;4992614;28;20482;-54
2021/07/26 06:51:27;;;;;;;24.00;19.60;;;;;;;23.55;86.89;100532.28;4995980;28;20482;-50
2021/07/26 06:53:55;;;;;;;25.07;18.70;;;;;;;23.62;87.18;100530.41;4992418;28;20498;-51
2021/07/26 06:56:22;;;;;;;24.30;16.67;;;;;;;23.61;84.31;100531.31;4998117;28;20493;-52
2021/07/26 06:58:50;;;;;;;25.50;18.90;;;;;;;23.54;84.85;100540.22;4988214;28;20531;-51
2021/07/26 07:01:18;;;;;;;25.20;17.53;;;;;;;23.59;83.75;100536.59;5004336;28;20504;-49
2021/07/26 07:03:47;;;;;;;24.27;15.60;;;;;;;23.80;83.85;100545.06;4985182;28;20775;-51
2021/07/26 07:06:16;;;;;;;17.47;13.40;;;;;;;23.76;80.96;100553.00;4995680;28;20477;-50
2021/07/26 07:08:45;;;;;;;28.37;14.07;;;;;;;23.91;82.70;100559.78;4992220;28;20789;-47
2021/07/26 07:11:14;;;;;;;22.10;12.73;;;;;;;23.73;81.85;100560.09;4996112;28;20984;-51
2021/07/26 07:13:42;;;;;;;20.43;13.10;;;;;;;23.71;81.27;100561.00;4981794;28;20485;-50
2021/07/26 07:16:11;;;;;;;26.83;18.00;;;;;;;23.85;80.83;100556.34;4995296;28;20568;-50
2021/07/26 07:18:39;;;;;;;15.20;12.00;;;;;;;23.84;79.70;100559.91;4992431;28;20474;-48
2021/07/26 07:21:08;;;;;;;16.77;12.03;;;;;;;23.83;77.39;100547.63;4995781;28;20482;-46
2021/07/26 07:23:35;;;;;;;15.27;11.33;;;;;;;24.00;77.42;100549.13;4970958;28;20494;-52
2021/07/26 07:26:03;;;;;;;19.47;11.73;;;;;;;24.02;77.34;100549.94;4995222;28;20545;-52
2021/07/26 07:28:30;;;;;;;18.30;11.47;;;;;;;24.31;78.44;100551.22;4992397;28;20474;-50
2021/07/26 07:30:58;;;;;;;18.33;11.57;;;;;;;24.53;76.80;100553.44;4995472;28;20489;-49
2021/07/26 07:33:26;;;;;;;18.80;12.00;;;;;;;24.57;77.27;100552.47;4984996;28;20485;-51
2021/07/26 07:35:54;;;;;;;18.80;11.70;;;;;;;24.53;76.20;100553.44;4985541;28;20479;-51
2021/07/26 07:38:23;;;;;;;41.87;26.50;;;;;;;24.75;74.37;100542.44;4982641;28;20516;-52
2021/07/26 07:40:50;;;;;;;21.47;13.37;;;;;;;24.69;74.01;100546.09;5022090;28;20482;-50
2021/07/26 07:43:18;;;;;;;16.20;11.57;;;;;;;24.74;73.94;100545.97;4982905;28;20488;-50
2021/07/26 07:45:45;;;;;;;17.60;10.10;;;;;;;24.80;69.94;100544.13;5019235;28;20457;-50
2021/07/26 07:48:13;;;;;;;20.00;13.73;;;;;;;24.93;68.86;100542.06;5009863;28;20903;-51
2021/07/26 07:50:41;;;;;;;29.57;15.40;;;;;;;24.79;69.52;100544.13;5014538;28;20771;-51
2021/07/26 07:53:08;;;;;;;13.07;8.50;;;;;;;24.83;70.29;100556.38;5001337;28;20895;-51
2021/07/26 07:55:37;;;;;;;26.50;10.97;;;;;;;24.90;70.04;100555.34;5009702;28;20505;-50
2021/07/26 07:58:05;;;;;;;15.33;7.57;;;;;;;24.80;70.87;100564.31;4993215;28;20781;-52
2021/07/26 08:00:32;;;;;;;25.37;10.77;;;;;;;24.82;69.38;100557.28;4995096;28;20490;-50
2021/07/26 08:03:00;;;;;;;34.57;15.20;;;;;;;24.75;67.96;100560.91;4994978;28;20470;-49
2021/07/26 08:05:28;;;;;;;19.33;11.20;;;;;;;24.65;69.14;100565.50;4969444;28;20493;-51
2021/07/26 08:07:56;;;;;;;16.47;9.20;;;;;;;24.45;68.31;100561.47;4995305;28;20766;-51
2021/07/26 08:10:24;;;;;;;17.33;9.17;;;;;;;24.24;68.16;100570.66;4993077;28;20855;-49
2021/07/26 08:12:53;;;;;;;10.13;6.33;;;;;;;24.28;69.12;100569.72;5013504;28;20500;-51
2021/07/26 08:15:21;;;;;;;11.70;6.93;;;;;;;24.29;70.49;100571.44;4991969;28;20792;-52
2021/07/26 08:17:48;;;;;;;21.43;10.57;;;;;;;24.30;70.50;100578.44;4998952;28;20496;-52
2021/07/26 08:20:17;;;;;;;19.73;10.37;;;;;;;24.34;70.42;100574.00;4993982;28;20486;-50
2021/07/26 08:22:46;;;;;;;11.27;7.20;;;;;;;24.35;70.39;100571.34;4998667;28;20481;-49
2021/07/26 08:25:14;;;;;;;21.37;11.97;;;;;;;24.36;72.35;100566.94;4993717;28;20482;-50
2021/07/26 08:27:53;;;;;;;9.60;7.13;;;;;;;24.31;71.22;100574.06;4998208;28;20739;-49
2021/07/26 08:30:23;;;;;;;21.27;12.80;;;;;;;24.24;70.62;100570.66;4999428;28;20540;-48
2021/07/26 08:32:51;;;;;;;23.30;12.57;;;;;;;24.13;70.58;100565.59;4998827;28;20469;-52
2021/07/26 08:35:20;;;;;;;44.17;19.87;;;;;;;24.11;70.85;100570.88;4991588;28;20493;-50
2021/07/26 08:37:48;;;;;;;18.17;10.23;;;;;;;24.03;71.44;100564.84;4997719;28;20496;-51
2021/07/26 08:40:16;;;;;;;10.23;6.80;;;;;;;23.93;72.06;100579.09;4975264;28;20502;-48
2021/07/26 08:42:43;;;;;;;13.37;6.97;;;;;;;23.85;73.11;100573.94;4998480;28;20466;-52
2021/07/26 08:45:13;;;;;;;11.70;6.97;;;;;;;23.90;72.52;100579.13;4984369;28;20498;-53
2021/07/26 08:47:42;;;;;;;9.30;6.70;;;;;;;23.89;73.64;100580.88;4987410;28;20795;-52
2021/07/26 08:50:12;;;;;;;10.67;7.17;;;;;;;23.98;74.04;100579.84;4969096;28;20501;-51
2021/07/26 08:52:40;;;;;;;18.70;10.40;;;;;;;23.96;73.98;100581.66;4990245;28;20477;-51
2021/07/26 08:55:12;;;;;;;22.90;11.87;;;;;;;23.97;74.10;100586.91;4975760;28;20483;-48
2021/07/26 08:57:45;;;;;;;22.33;13.70;;;;;;;23.83;75.26;100584.50;4983684;28;20491;-48
2021/07/26 09:00:15;;;;;;;13.30;8.77;;;;;;;23.87;74.50;100591.47;4977301;28;20487;-52
2021/07/26 09:02:50;;;;;;;13.97;8.53;;;;;;;23.80;75.50;100595.09;4982970;28;20537;-47
2021/07/26 09:05:18;;;;;;;35.33;20.70;;;;;;;24.01;76.28;100593.00;4980971;28;20490;-47
2021/07/26 09:07:48;;;;;;;20.33;10.87;;;;;;;23.90;76.16;100592.31;4982083;28;21000;-48
2021/07/26 09:10:17;;;;;;;18.53;12.73;;;;;;;23.93;74.34;100589.63;4958188;28;20788;-49
2021/07/26 09:12:46;;;;;;;14.23;8.40;;;;;;;23.97;74.69;100589.53;4995084;28;20466;-50
2021/07/26 09:15:29;;;;;;;10.50;7.30;;;;;;;23.94;73.08;100594.84;4966283;28;20494;-52
2021/07/26 09:17:58;;;;;;;22.97;10.67;;;;;;;23.88;74.17;100592.31;4994573;28;20492;-48
2021/07/26 09:20:28;;;;;;;20.57;10.90;;;;;;;23.89;74.34;100593.19;4999231;28;20501;-48
2021/07/26 09:22:57;;;;;;;41.17;22.10;;;;;;;23.97;73.42;100601.84;4992218;28;20462;-50
2021/07/26 09:25:26;;;;;;;31.10;17.63;;;;;;;24.02;74.04;100597.38;4984949;28;20487;-52
2021/07/26 09:27:58;;;;;;;26.93;14.77;;;;;;;23.99;74.34;100600.03;4985145;28;20463;-48
2021/07/26 09:30:29;;;;;;;13.70;7.83;;;;;;;24.15;74.18;100603.34;4974745;28;20795;-51
2021/07/26 09:32:56;;;;;;;25.70;16.03;;;;;;;24.10;75.68;100600.75;4990142;28;20450;-49
2021/07/26 09:35:24;;;;;;;17.30;9.07;;;;;;;24.10;76.14;100611.31;4972167;28;20523;-49
2021/07/26 09:37:59;;;;;;;16.23;9.63;;;;;;;24.08;76.01;100610.47;4990698;28;20488;-50
2021/07/26 09:40:32;;;;;;;19.17;8.90;;;;;;;24.08;76.43;100617.50;4984064;28;20933;-51
2021/07/26 09:43:20;;;;;;;12.80;7.80;;;;;;;24.05;77.17;100618.38;4987441;28;20470;-49
2021/07/26 09:45:50;;;;;;;10.93;7.37;;;;;;;24.25;78.55;100627.75;4982280;28;20906;-53
2021/07/26 09:48:20;;;;;;;24.60;11.80;;;;;;;24.05;79.15;100630.69;4973346;28;20471;-48
2021/07/26 09:50:49;;;;;;;10.63;7.13;;;;;;;24.00;78.13;100633.41;5006538;28;20795;-49
2021/07/26 09:53:17;;;;;;;12.50;7.57;;;;;;;23.93;78.89;100637.91;4981646;28;20463;-50
2021/07/26 09:55:46;;;;;;;12.67;7.83;;;;;;;24.14;79.01;100638.47;4992908;28;20493;-50
2021/07/26 09:58:15;;;;;;;11.27;7.20;;;;;;;24.11;78.58;100636.75;4969954;28;20490;-51
2021/07/26 10:00:43;;;;;;;13.50;7.40;;;;;;;24.27;78.95;100644.41;4987126;28;20494;-47
2021/07/26 10:03:14;;;;;;;13.10;8.03;;;;;;;24.38;79.33;100642.47;4977289;28;20842;-50
2021/07/26 10:05:43;;;;;;;17.60;11.07;;;;;;;24.12;81.76;100654.31;4987086;28;20517;-49
2021/07/26 10:08:11;;;;;;;16.73;9.87;;;;;;;24.27;82.81;100652.31;4956904;28;20559;-54
2021/07/26 10:10:40;;;;;;;17.80;10.60;;;;;;;24.17;83.31;100645.44;5001157;28;20484;-49
2021/07/26 10:13:08;;;;;;;17.57;11.03;;;;;;;24.11;84.16;100647.28;4970428;28;20463;-52
2021/07/26 10:15:37;;;;;;;12.70;10.30;;;;;;;24.09;84.82;100654.38;4986699;28;20493;-48
2021/07/26 10:18:06;;;;;;;16.70;11.00;;;;;;;23.97;85.90;100665.94;4979573;28;20483;-50
2021/07/26 10:20:40;;;;;;;15.47;11.40;;;;;;;23.65;86.75;100669.94;4978687;28;20518;-49
2021/07/26 10:23:10;;;;;;;16.27;12.27;;;;;;;23.41;88.56;100681.66;4963057;28;20463;-50
2021/07/26 10:25:41;;;;;;;13.80;10.70;;;;;;;23.25;89.82;100675.69;4982853;28;20490;-49
2021/07/26 10:28:14;;;;;;;15.73;11.00;;;;;;;22.99;90.53;100672.47;4994628;28;20470;-48
2021/07/26 10:30:42;;;;;;;15.17;10.80;;;;;;;23.19;91.51;100679.25;4977326;28;20483;-47
2021/07/26 10:33:10;;;;;;;13.50;8.93;;;;;;;23.17;91.90;100683.69;4979499;28;20471;-52
2021/07/26 10:35:49;;;;;;;14.53;9.73;;;;;;;23.20;92.31;100676.63;4986298;28;20535;-53
2021/07/26 10:38:56;;;;;;;12.03;8.00;;;;;;;23.18;92.51;100675.75;4953729;28;20983;-49
2021/07/26 10:42:02;;;;;;;11.53;8.10;;;;;;;23.27;92.49;100673.91;4987938;28;20487;-53
2021/07/26 10:44:49;;;;;;;10.90;6.90;;;;;;;23.02;92.37;100674.22;4971785;28;20490;-50
2021/07/26 10:47:18;;;;;;;8.83;6.90;;;;;;;23.14;92.75;100673.19;4979352;28;20546;-50
2021/07/26 10:50:14;;;;;;;15.70;7.50;;;;;;;23.18;92.71;100672.25;4981471;28;20494;-52
2021/07/26 10:52:50;;;;;;;9.50;7.10;;;;;;;22.93;93.06;100664.66;4975939;28;20559;-52
2021/07/26 10:55:57;;;;;;;11.23;7.90;;;;;;;23.09;93.16;100667.97;4978513;28;21003;-49
2021/07/26 10:59:01;;;;;;;13.20;6.40;;;;;;;23.01;92.29;100675.06;4974082;28;20926;-49
2021/07/26 11:01:58;;;;;;;10.80;7.30;;;;;;;23.16;92.88;100666.13;4960903;28;20570;-50
2021/07/26 11:04:47;;;;;;;12.90;7.20;;;;;;;23.37;91.78;100669.44;4966621;28;20482;-51
2021/07/26 11:07:28;;;;;;;42.77;28.97;;;;;;;23.69;91.17;100660.22;4988145;28;20476;-50
2021/07/26 11:09:58;;;;;;;21.93;12.83;;;;;;;23.81;89.25;100660.03;4979984;28;20762;-51
2021/07/26 11:12:54;;;;;;;72.77;48.77;;;;;;;23.98;88.24;100658.91;4984670;28;20465;-52
2021/07/26 11:15:23;;;;;;;27.53;15.93;;;;;;;24.29;86.12;100650.50;4981792;28;20492;-49
2021/07/26 11:18:19;;;;;;;49.83;34.00;;;;;;;24.24;86.56;100652.34;4988776;28;20808;-47
2021/07/26 11:21:17;;;;;;;36.50;23.90;;;;;;;24.39;85.37;100652.09;4991768;28;20943;-48